sensor_id;sensor_type;location;lat;lon;timestamp;P1;durP1;ratioP1;P2;durP2;ratioP2
25717;SDS011;13574;52.040;5.692;2023-03-01T00:01:23;9.27;;;5.97;;
25717;SDS011;13574;52.040;5.692;2023-03-01T00:03:51;10.50;;;5.72;;
25717;SDS011;13574;52.040;5.692;2023-03-01T00:06:17;10.35;;;6.45;;
25717;SDS011;13574;52.040;5.692;2023-03-01T00:08:44;12.60;;;6.30;;
25717;SDS011;13574;52.040;5.692;2023-03-01T00:11:11;9.70;;;5.78;;
25717;SDS011;13574;52.040;5.692;2023-03-01T00:13:42;8.65;;;5.78;;
25717;SDS011;13574;52.040;5.692;2023-03-01T00:16:10;11.10;;;6.68;;
25717;SDS011;13574;52.040;5.692;2023-03-01T00:18:38;11.82;;;6.88;;
25717;SDS011;13574;52.040;5.692;2023-03-01T00:21:04;12.40;;;6.35;;
25717;SDS011;13574;52.040;5.692;2023-03-01T00:23:31;11.27;;;6.38;;
25717;SDS011;13574;52.040;5.692;2023-03-01T00:25:58;12.98;;;7.10;;
25717;SDS011;13574;52.040;5.692;2023-03-01T00:28:23;11.15;;;6.63;;
25717;SDS011;13574;52.040;5.692;2023-03-01T00:30:49;12.32;;;6.60;;
25717;SDS011;13574;52.040;5.692;2023-03-01T00:33:15;11.15;;;6.22;;
25717;SDS011;13574;52.040;5.692;2023-03-01T00:35:41;12.63;;;6.80;;
25717;SDS011;13574;52.040;5.692;2023-03-01T00:38:06;10.18;;;6.07;;
25717;SDS011;13574;52.040;5.692;2023-03-01T00:40:33;10.48;;;6.03;;
25717;SDS011;13574;52.040;5.692;2023-03-01T00:43:00;10.65;;;5.82;;
25717;SDS011;13574;52.040;5.692;2023-03-01T00:45:26;11.25;;;6.05;;
25717;SDS011;13574;52.040;5.692;2023-03-01T00:47:52;8.80;;;5.60;;
25717;SDS011;13574;52.040;5.692;2023-03-01T00:50:19;9.68;;;5.85;;
25717;SDS011;13574;52.040;5.692;2023-03-01T00:52:45;14.10;;;6.63;;
25717;SDS011;13574;52.040;5.692;2023-03-01T00:55:11;8.10;;;5.72;;
25717;SDS011;13574;52.040;5.692;2023-03-01T00:57:37;11.55;;;6.20;;
25717;SDS011;13574;52.040;5.692;2023-03-01T01:00:06;11.38;;;5.95;;
25717;SDS011;13574;52.040;5.692;2023-03-01T01:02:34;8.25;;;5.28;;
25717;SDS011;13574;52.040;5.692;2023-03-01T01:05:00;8.93;;;5.85;;
25717;SDS011;13574;52.040;5.692;2023-03-01T01:07:26;11.40;;;6.00;;
25717;SDS011;13574;52.040;5.692;2023-03-01T01:09:51;8.65;;;5.60;;
25717;SDS011;13574;52.040;5.692;2023-03-01T01:12:17;9.55;;;6.43;;
25717;SDS011;13574;52.040;5.692;2023-03-01T01:14:43;9.20;;;5.78;;
25717;SDS011;13574;52.040;5.692;2023-03-01T01:17:08;10.27;;;6.32;;
25717;SDS011;13574;52.040;5.692;2023-03-01T01:19:34;9.65;;;6.25;;
25717;SDS011;13574;52.040;5.692;2023-03-01T01:22:00;11.38;;;5.75;;
25717;SDS011;13574;52.040;5.692;2023-03-01T01:24:25;8.70;;;5.30;;
25717;SDS011;13574;52.040;5.692;2023-03-01T01:26:51;10.45;;;6.20;;
25717;SDS011;13574;52.040;5.692;2023-03-01T01:29:17;8.80;;;5.30;;
25717;SDS011;13574;52.040;5.692;2023-03-01T01:31:43;10.52;;;6.25;;
25717;SDS011;13574;52.040;5.692;2023-03-01T01:34:13;10.45;;;5.70;;
25717;SDS011;13574;52.040;5.692;2023-03-01T01:36:43;9.23;;;5.63;;
25717;SDS011;13574;52.040;5.692;2023-03-01T01:39:12;11.57;;;6.35;;
25717;SDS011;13574;52.040;5.692;2023-03-01T01:41:38;11.10;;;6.15;;
25717;SDS011;13574;52.040;5.692;2023-03-01T01:46:54;12.63;;;5.82;;
25717;SDS011;13574;52.040;5.692;2023-03-01T01:49:31;10.48;;;5.82;;
25717;SDS011;13574;52.040;5.692;2023-03-01T01:52:05;11.05;;;5.93;;
25717;SDS011;13574;52.040;5.692;2023-03-01T01:54:45;9.02;;;5.82;;
25717;SDS011;13574;52.040;5.692;2023-03-01T01:57:26;10.48;;;6.45;;
25717;SDS011;13574;52.040;5.692;2023-03-01T02:00:09;11.48;;;6.47;;
25717;SDS011;13574;52.040;5.692;2023-03-01T02:02:36;12.40;;;6.40;;
25717;SDS011;13574;52.040;5.692;2023-03-01T02:05:05;9.63;;;6.00;;
25717;SDS011;13574;52.040;5.692;2023-03-01T02:07:41;11.35;;;6.38;;
25717;SDS011;13574;52.040;5.692;2023-03-01T02:10:08;10.60;;;6.22;;
25717;SDS011;13574;52.040;5.692;2023-03-01T02:12:34;9.32;;;6.00;;
25717;SDS011;13574;52.040;5.692;2023-03-01T02:15:02;10.48;;;5.80;;
25717;SDS011;13574;52.040;5.692;2023-03-01T02:17:27;11.40;;;6.55;;
25717;SDS011;13574;52.040;5.692;2023-03-01T02:20:17;10.98;;;6.60;;
25717;SDS011;13574;52.040;5.692;2023-03-01T02:22:44;9.90;;;6.35;;
25717;SDS011;13574;52.040;5.692;2023-03-01T02:25:23;13.30;;;6.60;;
25717;SDS011;13574;52.040;5.692;2023-03-01T02:30:40;13.13;;;6.25;;
25717;SDS011;13574;52.040;5.692;2023-03-01T02:33:28;11.65;;;5.85;;
25717;SDS011;13574;52.040;5.692;2023-03-01T02:35:59;11.57;;;6.60;;
25717;SDS011;13574;52.040;5.692;2023-03-01T02:38:26;10.73;;;6.07;;
25717;SDS011;13574;52.040;5.692;2023-03-01T02:40:53;12.48;;;6.43;;
25717;SDS011;13574;52.040;5.692;2023-03-01T02:43:22;12.00;;;6.13;;
25717;SDS011;13574;52.040;5.692;2023-03-01T02:45:52;9.23;;;5.85;;
25717;SDS011;13574;52.040;5.692;2023-03-01T02:48:22;11.25;;;6.32;;
25717;SDS011;13574;52.040;5.692;2023-03-01T02:53:41;8.60;;;5.43;;
25717;SDS011;13574;52.040;5.692;2023-03-01T02:56:38;11.55;;;6.20;;
25717;SDS011;13574;52.040;5.692;2023-03-01T02:59:05;9.77;;;5.78;;
25717;SDS011;13574;52.040;5.692;2023-03-01T03:01:31;10.48;;;6.00;;
25717;SDS011;13574;52.040;5.692;2023-03-01T03:04:03;13.23;;;6.15;;
25717;SDS011;13574;52.040;5.692;2023-03-01T03:06:30;7.60;;;5.05;;
25717;SDS011;13574;52.040;5.692;2023-03-01T03:08:55;10.88;;;5.93;;
25717;SDS011;13574;52.040;5.692;2023-03-01T03:11:21;10.25;;;5.72;;
25717;SDS011;13574;52.040;5.692;2023-03-01T03:13:47;9.40;;;5.55;;
25717;SDS011;13574;52.040;5.692;2023-03-01T03:16:13;9.00;;;5.68;;
25717;SDS011;13574;52.040;5.692;2023-03-01T03:18:39;10.25;;;5.88;;
25717;SDS011;13574;52.040;5.692;2023-03-01T03:21:08;9.63;;;5.40;;
25717;SDS011;13574;52.040;5.692;2023-03-01T03:23:36;9.27;;;5.15;;
25717;SDS011;13574;52.040;5.692;2023-03-01T03:26:02;10.50;;;6.28;;
25717;SDS011;13574;52.040;5.692;2023-03-01T03:28:29;10.60;;;6.05;;
25717;SDS011;13574;52.040;5.692;2023-03-01T03:30:58;11.02;;;5.53;;
25717;SDS011;13574;52.040;5.692;2023-03-01T03:33:28;9.50;;;5.72;;
25717;SDS011;13574;52.040;5.692;2023-03-01T03:35:57;10.52;;;5.25;;
25717;SDS011;13574;52.040;5.692;2023-03-01T03:38:23;9.85;;;5.88;;
25717;SDS011;13574;52.040;5.692;2023-03-01T03:40:50;10.07;;;5.88;;
25717;SDS011;13574;52.040;5.692;2023-03-01T03:43:30;9.70;;;5.97;;
25717;SDS011;13574;52.040;5.692;2023-03-01T03:45:57;8.07;;;5.60;;
25717;SDS011;13574;52.040;5.692;2023-03-01T03:48:23;14.38;;;6.32;;
25717;SDS011;13574;52.040;5.692;2023-03-01T03:50:51;9.43;;;5.72;;
25717;SDS011;13574;52.040;5.692;2023-03-01T03:53:19;9.32;;;5.68;;
25717;SDS011;13574;52.040;5.692;2023-03-01T03:55:46;10.60;;;6.00;;
25717;SDS011;13574;52.040;5.692;2023-03-01T03:58:14;9.50;;;6.18;;
25717;SDS011;13574;52.040;5.692;2023-03-01T04:00:42;10.32;;;5.80;;
25717;SDS011;13574;52.040;5.692;2023-03-01T04:03:10;9.32;;;5.53;;
25717;SDS011;13574;52.040;5.692;2023-03-01T04:05:38;9.65;;;5.85;;
25717;SDS011;13574;52.040;5.692;2023-03-01T04:08:05;14.45;;;6.30;;
25717;SDS011;13574;52.040;5.692;2023-03-01T04:10:35;12.57;;;6.68;;
25717;SDS011;13574;52.040;5.692;2023-03-01T04:13:03;8.25;;;5.55;;
25717;SDS011;13574;52.040;5.692;2023-03-01T04:15:33;9.40;;;5.80;;
25717;SDS011;13574;52.040;5.692;2023-03-01T04:17:59;9.10;;;5.88;;
25717;SDS011;13574;52.040;5.692;2023-03-01T04:20:27;12.20;;;6.78;;
25717;SDS011;13574;52.040;5.692;2023-03-01T04:23:05;10.10;;;4.73;;
25717;SDS011;13574;52.040;5.692;2023-03-01T04:28:22;11.80;;;6.38;;
25717;SDS011;13574;52.040;5.692;2023-03-01T04:31:08;11.00;;;6.13;;
25717;SDS011;13574;52.040;5.692;2023-03-01T04:33:39;10.48;;;6.25;;
25717;SDS011;13574;52.040;5.692;2023-03-01T04:36:09;10.50;;;6.22;;
25717;SDS011;13574;52.040;5.692;2023-03-01T04:38:37;8.60;;;5.95;;
25717;SDS011;13574;52.040;5.692;2023-03-01T04:41:06;11.27;;;6.22;;
25717;SDS011;13574;52.040;5.692;2023-03-01T04:43:33;9.48;;;6.30;;
25717;SDS011;13574;52.040;5.692;2023-03-01T04:46:00;11.80;;;6.40;;
25717;SDS011;13574;52.040;5.692;2023-03-01T04:48:28;11.00;;;6.72;;
25717;SDS011;13574;52.040;5.692;2023-03-01T04:50:54;10.48;;;6.07;;
25717;SDS011;13574;52.040;5.692;2023-03-01T04:53:19;10.80;;;6.93;;
25717;SDS011;13574;52.040;5.692;2023-03-01T04:55:45;12.18;;;6.72;;
25717;SDS011;13574;52.040;5.692;2023-03-01T04:58:11;12.57;;;6.93;;
25717;SDS011;13574;52.040;5.692;2023-03-01T05:00:36;9.40;;;6.32;;
25717;SDS011;13574;52.040;5.692;2023-03-01T05:03:02;12.05;;;6.50;;
25717;SDS011;13574;52.040;5.692;2023-03-01T05:05:30;12.30;;;6.78;;
25717;SDS011;13574;52.040;5.692;2023-03-01T05:08:04;10.70;;;6.57;;
25717;SDS011;13574;52.040;5.692;2023-03-01T05:10:32;12.13;;;6.70;;
25717;SDS011;13574;52.040;5.692;2023-03-01T05:13:00;11.98;;;6.75;;
25717;SDS011;13574;52.040;5.692;2023-03-01T05:15:28;13.05;;;6.63;;
25717;SDS011;13574;52.040;5.692;2023-03-01T05:17:55;15.98;;;6.68;;
25717;SDS011;13574;52.040;5.692;2023-03-01T05:20:24;11.63;;;6.70;;
25717;SDS011;13574;52.040;5.692;2023-03-01T05:22:51;13.15;;;7.07;;
25717;SDS011;13574;52.040;5.692;2023-03-01T05:25:19;13.45;;;6.68;;
25717;SDS011;13574;52.040;5.692;2023-03-01T05:27:46;10.77;;;6.68;;
25717;SDS011;13574;52.040;5.692;2023-03-01T05:30:12;14.45;;;7.07;;
25717;SDS011;13574;52.040;5.692;2023-03-01T05:32:44;13.38;;;7.32;;
25717;SDS011;13574;52.040;5.692;2023-03-01T05:35:12;11.60;;;6.72;;
25717;SDS011;13574;52.040;5.692;2023-03-01T05:37:39;11.50;;;6.80;;
25717;SDS011;13574;52.040;5.692;2023-03-01T05:40:07;11.52;;;6.72;;
25717;SDS011;13574;52.040;5.692;2023-03-01T05:42:40;12.65;;;6.75;;
25717;SDS011;13574;52.040;5.692;2023-03-01T05:45:13;12.25;;;6.70;;
25717;SDS011;13574;52.040;5.692;2023-03-01T05:47:40;13.02;;;6.88;;
25717;SDS011;13574;52.040;5.692;2023-03-01T05:50:18;10.55;;;6.50;;
25717;SDS011;13574;52.040;5.692;2023-03-01T05:52:47;12.15;;;6.65;;
25717;SDS011;13574;52.040;5.692;2023-03-01T05:55:15;12.15;;;7.20;;
25717;SDS011;13574;52.040;5.692;2023-03-01T05:57:42;14.32;;;7.05;;
25717;SDS011;13574;52.040;5.692;2023-03-01T06:00:09;13.80;;;7.57;;
25717;SDS011;13574;52.040;5.692;2023-03-01T06:02:35;11.40;;;6.68;;
25717;SDS011;13574;52.040;5.692;2023-03-01T06:05:01;14.77;;;6.55;;
25717;SDS011;13574;52.040;5.692;2023-03-01T06:07:27;13.15;;;6.65;;
25717;SDS011;13574;52.040;5.692;2023-03-01T06:09:53;12.23;;;6.47;;
25717;SDS011;13574;52.040;5.692;2023-03-01T06:12:18;12.98;;;6.60;;
25717;SDS011;13574;52.040;5.692;2023-03-01T06:14:45;10.90;;;6.22;;
25717;SDS011;13574;52.040;5.692;2023-03-01T06:17:11;13.18;;;7.07;;
25717;SDS011;13574;52.040;5.692;2023-03-01T06:19:37;14.43;;;7.47;;
25717;SDS011;13574;52.040;5.692;2023-03-01T06:22:02;13.13;;;6.88;;
25717;SDS011;13574;52.040;5.692;2023-03-01T06:24:28;11.85;;;7.07;;
25717;SDS011;13574;52.040;5.692;2023-03-01T06:26:57;10.48;;;6.63;;
25717;SDS011;13574;52.040;5.692;2023-03-01T06:29:46;11.73;;;6.90;;
25717;SDS011;13574;52.040;5.692;2023-03-01T06:32:11;14.55;;;7.10;;
25717;SDS011;13574;52.040;5.692;2023-03-01T06:34:37;16.05;;;7.30;;
25717;SDS011;13574;52.040;5.692;2023-03-01T06:37:02;16.42;;;7.22;;
25717;SDS011;13574;52.040;5.692;2023-03-01T06:39:30;11.30;;;6.95;;
25717;SDS011;13574;52.040;5.692;2023-03-01T06:41:56;14.05;;;7.53;;
25717;SDS011;13574;52.040;5.692;2023-03-01T06:44:22;15.10;;;7.50;;
25717;SDS011;13574;52.040;5.692;2023-03-01T06:46:48;12.50;;;7.35;;
25717;SDS011;13574;52.040;5.692;2023-03-01T06:49:14;16.95;;;7.55;;
25717;SDS011;13574;52.040;5.692;2023-03-01T06:51:41;11.73;;;7.28;;
25717;SDS011;13574;52.040;5.692;2023-03-01T06:54:07;13.25;;;7.57;;
25717;SDS011;13574;52.040;5.692;2023-03-01T06:56:33;14.02;;;8.07;;
25717;SDS011;13574;52.040;5.692;2023-03-01T06:58:58;14.15;;;7.70;;
25717;SDS011;13574;52.040;5.692;2023-03-01T07:01:24;14.32;;;7.70;;
25717;SDS011;13574;52.040;5.692;2023-03-01T07:03:50;13.43;;;8.35;;
25717;SDS011;13574;52.040;5.692;2023-03-01T07:06:16;20.45;;;8.00;;
25717;SDS011;13574;52.040;5.692;2023-03-01T07:08:42;19.70;;;7.68;;
25717;SDS011;13574;52.040;5.692;2023-03-01T07:11:08;16.80;;;7.55;;
25717;SDS011;13574;52.040;5.692;2023-03-01T07:13:34;17.17;;;7.82;;
25717;SDS011;13574;52.040;5.692;2023-03-01T07:16:02;13.93;;;7.93;;
25717;SDS011;13574;52.040;5.692;2023-03-01T07:18:28;15.75;;;8.15;;
25717;SDS011;13574;52.040;5.692;2023-03-01T07:20:53;21.35;;;8.02;;
25717;SDS011;13574;52.040;5.692;2023-03-01T07:23:19;15.77;;;8.32;;
25717;SDS011;13574;52.040;5.692;2023-03-01T07:25:50;14.52;;;7.63;;
25717;SDS011;13574;52.040;5.692;2023-03-01T07:28:17;13.38;;;7.97;;
25717;SDS011;13574;52.040;5.692;2023-03-01T07:30:42;15.15;;;7.65;;
25717;SDS011;13574;52.040;5.692;2023-03-01T07:33:08;16.70;;;7.95;;
25717;SDS011;13574;52.040;5.692;2023-03-01T07:35:33;12.32;;;8.10;;
25717;SDS011;13574;52.040;5.692;2023-03-01T07:37:59;15.73;;;7.65;;
25717;SDS011;13574;52.040;5.692;2023-03-01T07:40:25;14.90;;;7.30;;
25717;SDS011;13574;52.040;5.692;2023-03-01T07:42:54;13.85;;;8.25;;
25717;SDS011;13574;52.040;5.692;2023-03-01T07:45:24;15.93;;;7.82;;
25717;SDS011;13574;52.040;5.692;2023-03-01T07:47:50;12.88;;;7.50;;
25717;SDS011;13574;52.040;5.692;2023-03-01T07:50:17;14.23;;;7.55;;
25717;SDS011;13574;52.040;5.692;2023-03-01T07:52:45;12.13;;;7.57;;
25717;SDS011;13574;52.040;5.692;2023-03-01T07:56:01;12.77;;;6.85;;
25717;SDS011;13574;52.040;5.692;2023-03-01T07:58:28;11.38;;;7.30;;
25717;SDS011;13574;52.040;5.692;2023-03-01T08:00:53;12.88;;;7.07;;
25717;SDS011;13574;52.040;5.692;2023-03-01T08:03:19;11.40;;;6.93;;
25717;SDS011;13574;52.040;5.692;2023-03-01T08:05:45;12.32;;;7.00;;
25717;SDS011;13574;52.040;5.692;2023-03-01T08:08:10;11.57;;;7.22;;
25717;SDS011;13574;52.040;5.692;2023-03-01T08:10:36;16.27;;;7.07;;
25717;SDS011;13574;52.040;5.692;2023-03-01T08:13:02;11.82;;;7.32;;
25717;SDS011;13574;52.040;5.692;2023-03-01T08:15:27;13.35;;;8.60;;
25717;SDS011;13574;52.040;5.692;2023-03-01T08:17:53;14.63;;;8.00;;
25717;SDS011;13574;52.040;5.692;2023-03-01T08:20:19;12.40;;;7.70;;
25717;SDS011;13574;52.040;5.692;2023-03-01T08:22:44;12.45;;;7.60;;
25717;SDS011;13574;52.040;5.692;2023-03-01T08:25:10;12.70;;;7.88;;
25717;SDS011;13574;52.040;5.692;2023-03-01T08:27:36;11.55;;;7.20;;
25717;SDS011;13574;52.040;5.692;2023-03-01T08:30:01;13.20;;;7.38;;
25717;SDS011;13574;52.040;5.692;2023-03-01T08:32:27;12.95;;;8.00;;
25717;SDS011;13574;52.040;5.692;2023-03-01T08:34:53;14.38;;;8.00;;
25717;SDS011;13574;52.040;5.692;2023-03-01T08:37:19;12.85;;;7.95;;
25717;SDS011;13574;52.040;5.692;2023-03-01T08:39:44;14.88;;;8.20;;
25717;SDS011;13574;52.040;5.692;2023-03-01T08:42:11;15.93;;;7.72;;
25717;SDS011;13574;52.040;5.692;2023-03-01T08:44:37;16.00;;;7.38;;
25717;SDS011;13574;52.040;5.692;2023-03-01T08:47:02;11.85;;;7.45;;
25717;SDS011;13574;52.040;5.692;2023-03-01T08:49:29;12.95;;;8.00;;
25717;SDS011;13574;52.040;5.692;2023-03-01T08:51:57;14.50;;;7.00;;
25717;SDS011;13574;52.040;5.692;2023-03-01T08:54:23;13.57;;;7.10;;
25717;SDS011;13574;52.040;5.692;2023-03-01T08:56:50;12.13;;;7.18;;
25717;SDS011;13574;52.040;5.692;2023-03-01T08:59:16;13.60;;;7.05;;
25717;SDS011;13574;52.040;5.692;2023-03-01T09:01:42;12.15;;;7.32;;
25717;SDS011;13574;52.040;5.692;2023-03-01T09:04:11;11.02;;;6.47;;
25717;SDS011;13574;52.040;5.692;2023-03-01T09:06:37;12.55;;;7.22;;
25717;SDS011;13574;52.040;5.692;2023-03-01T09:09:04;11.57;;;7.25;;
25717;SDS011;13574;52.040;5.692;2023-03-01T09:11:42;13.55;;;6.47;;
25717;SDS011;13574;52.040;5.692;2023-03-01T09:14:08;11.77;;;6.85;;
25717;SDS011;13574;52.040;5.692;2023-03-01T09:16:34;13.48;;;6.93;;
25717;SDS011;13574;52.040;5.692;2023-03-01T09:19:01;11.63;;;6.20;;
25717;SDS011;13574;52.040;5.692;2023-03-01T09:21:27;10.68;;;6.65;;
25717;SDS011;13574;52.040;5.692;2023-03-01T09:23:53;10.25;;;6.35;;
25717;SDS011;13574;52.040;5.692;2023-03-01T09:26:21;11.30;;;7.00;;
25717;SDS011;13574;52.040;5.692;2023-03-01T09:28:49;10.80;;;6.50;;
25717;SDS011;13574;52.040;5.692;2023-03-01T09:31:16;9.77;;;6.35;;
25717;SDS011;13574;52.040;5.692;2023-03-01T09:33:45;12.63;;;6.40;;
25717;SDS011;13574;52.040;5.692;2023-03-01T09:36:13;11.38;;;5.97;;
25717;SDS011;13574;52.040;5.692;2023-03-01T09:38:40;13.48;;;6.72;;
25717;SDS011;13574;52.040;5.692;2023-03-01T09:41:10;11.55;;;5.53;;
25717;SDS011;13574;52.040;5.692;2023-03-01T09:43:46;7.97;;;4.70;;
25717;SDS011;13574;52.040;5.692;2023-03-01T09:46:19;7.05;;;4.45;;
25717;SDS011;13574;52.040;5.692;2023-03-01T09:48:49;8.95;;;4.55;;
25717;SDS011;13574;52.040;5.692;2023-03-01T09:51:19;8.95;;;4.57;;
25717;SDS011;13574;52.040;5.692;2023-03-01T09:53:52;8.68;;;4.35;;
25717;SDS011;13574;52.040;5.692;2023-03-01T09:56:20;8.18;;;4.43;;
25717;SDS011;13574;52.040;5.692;2023-03-01T09:58:54;9.73;;;4.25;;
25717;SDS011;13574;52.040;5.692;2023-03-01T10:06:57;6.15;;;3.83;;
25717;SDS011;13574;52.040;5.692;2023-03-01T10:09:39;6.57;;;4.05;;
25717;SDS011;13574;52.040;5.692;2023-03-01T10:12:11;6.97;;;4.28;;
25717;SDS011;13574;52.040;5.692;2023-03-01T10:14:50;7.35;;;4.40;;
25717;SDS011;13574;52.040;5.692;2023-03-01T10:17:33;6.80;;;4.22;;
25717;SDS011;13574;52.040;5.692;2023-03-01T10:25:14;7.72;;;4.18;;
25717;SDS011;13574;52.040;5.692;2023-03-01T10:27:52;11.80;;;3.97;;
25717;SDS011;13574;52.040;5.692;2023-03-01T10:30:20;8.35;;;4.35;;
25717;SDS011;13574;52.040;5.692;2023-03-01T10:32:55;8.02;;;4.60;;
25717;SDS011;13574;52.040;5.692;2023-03-01T10:35:27;6.85;;;4.38;;
25717;SDS011;13574;52.040;5.692;2023-03-01T10:40:28;6.70;;;4.13;;
25717;SDS011;13574;52.040;5.692;2023-03-01T10:42:53;8.65;;;4.43;;
25717;SDS011;13574;52.040;5.692;2023-03-01T10:50:44;7.95;;;4.68;;
25717;SDS011;13574;52.040;5.692;2023-03-01T10:56:07;6.60;;;4.53;;
25717;SDS011;13574;52.040;5.692;2023-03-01T10:58:35;8.38;;;4.65;;
25717;SDS011;13574;52.040;5.692;2023-03-01T11:06:30;7.78;;;4.50;;
25717;SDS011;13574;52.040;5.692;2023-03-01T11:08:55;9.60;;;4.63;;
25717;SDS011;13574;52.040;5.692;2023-03-01T11:13:58;7.88;;;4.32;;
25717;SDS011;13574;52.040;5.692;2023-03-01T11:16:44;16.33;;;4.88;;
25717;SDS011;13574;52.040;5.692;2023-03-01T11:21:38;13.23;;;4.07;;
25717;SDS011;13574;52.040;5.692;2023-03-01T11:24:16;8.77;;;4.07;;
25717;SDS011;13574;52.040;5.692;2023-03-01T11:26:47;8.82;;;4.30;;
25717;SDS011;13574;52.040;5.692;2023-03-01T11:31:58;8.02;;;4.57;;
25717;SDS011;13574;52.040;5.692;2023-03-01T11:37:21;5.90;;;3.47;;
25717;SDS011;13574;52.040;5.692;2023-03-01T11:42:59;6.75;;;4.35;;
25717;SDS011;13574;52.040;5.692;2023-03-01T11:45:26;11.30;;;4.40;;
25717;SDS011;13574;52.040;5.692;2023-03-01T11:48:17;6.07;;;4.05;;
25717;SDS011;13574;52.040;5.692;2023-03-01T11:51:02;7.75;;;4.43;;
25717;SDS011;13574;52.040;5.692;2023-03-01T11:56:41;7.00;;;4.13;;
25717;SDS011;13574;52.040;5.692;2023-03-01T12:07:48;6.80;;;4.00;;
25717;SDS011;13574;52.040;5.692;2023-03-01T12:10:29;13.80;;;4.00;;
25717;SDS011;13574;52.040;5.692;2023-03-01T12:13:16;9.02;;;4.20;;
25717;SDS011;13574;52.040;5.692;2023-03-01T12:15:58;6.43;;;4.03;;
25717;SDS011;13574;52.040;5.692;2023-03-01T12:23:52;8.07;;;4.03;;
25717;SDS011;13574;52.040;5.692;2023-03-01T12:48:57;10.43;;;4.55;;
25717;SDS011;13574;52.040;5.692;2023-03-01T12:51:37;8.48;;;4.45;;
25717;SDS011;13574;52.040;5.692;2023-03-01T12:54:07;9.10;;;4.35;;
25717;SDS011;13574;52.040;5.692;2023-03-01T12:56:40;8.70;;;4.82;;
25717;SDS011;13574;52.040;5.692;2023-03-01T12:59:15;6.60;;;4.45;;
25717;SDS011;13574;52.040;5.692;2023-03-01T13:02:09;9.95;;;4.80;;
25717;SDS011;13574;52.040;5.692;2023-03-01T13:07:40;10.07;;;4.57;;
25717;SDS011;13574;52.040;5.692;2023-03-01T13:10:33;9.85;;;4.28;;
25717;SDS011;13574;52.040;5.692;2023-03-01T13:13:22;10.38;;;4.45;;
25717;SDS011;13574;52.040;5.692;2023-03-01T13:15:50;7.15;;;4.78;;
25717;SDS011;13574;52.040;5.692;2023-03-01T13:26:19;8.18;;;4.88;;
25717;SDS011;13574;52.040;5.692;2023-03-01T13:36:46;8.35;;;4.72;;
25717;SDS011;13574;52.040;5.692;2023-03-01T13:41:50;7.43;;;4.30;;
25717;SDS011;13574;52.040;5.692;2023-03-01T13:46:44;6.72;;;4.07;;
25717;SDS011;13574;52.040;5.692;2023-03-01T13:49:11;6.43;;;4.22;;
25717;SDS011;13574;52.040;5.692;2023-03-01T13:51:44;7.63;;;4.55;;
25717;SDS011;13574;52.040;5.692;2023-03-01T13:54:12;7.10;;;4.20;;
25717;SDS011;13574;52.040;5.692;2023-03-01T13:56:40;7.03;;;4.20;;
25717;SDS011;13574;52.040;5.692;2023-03-01T13:59:13;8.52;;;4.70;;
25717;SDS011;13574;52.040;5.692;2023-03-01T14:01:40;12.00;;;4.82;;
25717;SDS011;13574;52.040;5.692;2023-03-01T14:09:59;7.90;;;4.25;;
25717;SDS011;13574;52.040;5.692;2023-03-01T14:17:58;9.73;;;4.50;;
25717;SDS011;13574;52.040;5.692;2023-03-01T14:20:32;7.88;;;4.07;;
25717;SDS011;13574;52.040;5.692;2023-03-01T14:23:08;9.07;;;4.10;;
25717;SDS011;13574;52.040;5.692;2023-03-01T14:25:38;8.30;;;4.53;;
25717;SDS011;13574;52.040;5.692;2023-03-01T14:28:24;8.73;;;4.22;;
25717;SDS011;13574;52.040;5.692;2023-03-01T14:30:57;7.28;;;4.50;;
25717;SDS011;13574;52.040;5.692;2023-03-01T14:33:28;6.85;;;3.72;;
25717;SDS011;13574;52.040;5.692;2023-03-01T14:36:11;10.98;;;4.10;;
25717;SDS011;13574;52.040;5.692;2023-03-01T14:38:39;6.87;;;4.10;;
25717;SDS011;13574;52.040;5.692;2023-03-01T14:41:16;11.27;;;4.40;;
25717;SDS011;13574;52.040;5.692;2023-03-01T14:43:50;6.68;;;4.03;;
25717;SDS011;13574;52.040;5.692;2023-03-01T14:49:12;11.80;;;4.80;;
25717;SDS011;13574;52.040;5.692;2023-03-01T14:51:41;12.48;;;4.35;;
25717;SDS011;13574;52.040;5.692;2023-03-01T14:54:37;6.80;;;4.20;;
25717;SDS011;13574;52.040;5.692;2023-03-01T14:57:13;8.23;;;4.22;;
25717;SDS011;13574;52.040;5.692;2023-03-01T14:59:43;9.55;;;4.75;;
25717;SDS011;13574;52.040;5.692;2023-03-01T15:02:15;7.03;;;4.22;;
25717;SDS011;13574;52.040;5.692;2023-03-01T15:04:45;6.93;;;3.72;;
25717;SDS011;13574;52.040;5.692;2023-03-01T15:07:17;8.32;;;4.43;;
25717;SDS011;13574;52.040;5.692;2023-03-01T15:09:44;9.43;;;4.10;;
25717;SDS011;13574;52.040;5.692;2023-03-01T15:14:55;6.80;;;3.90;;
25717;SDS011;13574;52.040;5.692;2023-03-01T15:17:34;6.38;;;3.58;;
25717;SDS011;13574;52.040;5.692;2023-03-01T15:20:04;22.05;;;4.30;;
25717;SDS011;13574;52.040;5.692;2023-03-01T15:22:42;7.63;;;3.65;;
25717;SDS011;13574;52.040;5.692;2023-03-01T15:25:16;6.60;;;3.60;;
25717;SDS011;13574;52.040;5.692;2023-03-01T15:27:48;7.65;;;3.42;;
25717;SDS011;13574;52.040;5.692;2023-03-01T15:30:19;6.68;;;3.63;;
25717;SDS011;13574;52.040;5.692;2023-03-01T15:40:53;5.70;;;3.22;;
25717;SDS011;13574;52.040;5.692;2023-03-01T15:46:20;7.13;;;3.75;;
25717;SDS011;13574;52.040;5.692;2023-03-01T15:48:51;6.85;;;3.42;;
25717;SDS011;13574;52.040;5.692;2023-03-01T15:53:59;8.30;;;3.38;;
25717;SDS011;13574;52.040;5.692;2023-03-01T15:56:26;7.60;;;3.47;;
25717;SDS011;13574;52.040;5.692;2023-03-01T15:58:52;7.93;;;4.63;;
25717;SDS011;13574;52.040;5.692;2023-03-01T16:01:21;11.88;;;4.82;;
25717;SDS011;13574;52.040;5.692;2023-03-01T16:03:47;13.63;;;6.90;;
25717;SDS011;13574;52.040;5.692;2023-03-01T16:06:13;8.10;;;4.50;;
25717;SDS011;13574;52.040;5.692;2023-03-01T16:08:38;8.93;;;3.90;;
25717;SDS011;13574;52.040;5.692;2023-03-01T16:11:05;7.55;;;3.80;;
25717;SDS011;13574;52.040;5.692;2023-03-01T16:13:39;7.22;;;4.20;;
25717;SDS011;13574;52.040;5.692;2023-03-01T16:16:05;8.98;;;3.80;;
25717;SDS011;13574;52.040;5.692;2023-03-01T16:18:31;6.63;;;3.80;;
25717;SDS011;13574;52.040;5.692;2023-03-01T16:20:56;5.95;;;3.00;;
25717;SDS011;13574;52.040;5.692;2023-03-01T16:23:22;8.10;;;3.60;;
25717;SDS011;13574;52.040;5.692;2023-03-01T16:25:49;8.07;;;3.67;;
25717;SDS011;13574;52.040;5.692;2023-03-01T16:28:15;6.22;;;3.60;;
25717;SDS011;13574;52.040;5.692;2023-03-01T16:30:45;6.22;;;3.47;;
25717;SDS011;13574;52.040;5.692;2023-03-01T16:33:12;4.72;;;3.30;;
25717;SDS011;13574;52.040;5.692;2023-03-01T16:35:40;6.10;;;3.47;;
25717;SDS011;13574;52.040;5.692;2023-03-01T16:38:06;7.75;;;3.55;;
25717;SDS011;13574;52.040;5.692;2023-03-01T16:40:32;6.35;;;3.88;;
25717;SDS011;13574;52.040;5.692;2023-03-01T16:42:58;7.30;;;4.10;;
25717;SDS011;13574;52.040;5.692;2023-03-01T16:45:33;6.85;;;3.90;;
25717;SDS011;13574;52.040;5.692;2023-03-01T16:48:00;6.75;;;4.10;;
25717;SDS011;13574;52.040;5.692;2023-03-01T16:50:27;6.22;;;3.90;;
25717;SDS011;13574;52.040;5.692;2023-03-01T16:52:52;7.80;;;4.30;;
25717;SDS011;13574;52.040;5.692;2023-03-01T16:55:18;7.40;;;4.05;;
25717;SDS011;13574;52.040;5.692;2023-03-01T16:57:44;6.90;;;4.22;;
25717;SDS011;13574;52.040;5.692;2023-03-01T17:00:10;6.95;;;4.20;;
25717;SDS011;13574;52.040;5.692;2023-03-01T17:02:38;7.30;;;4.57;;
25717;SDS011;13574;52.040;5.692;2023-03-01T17:05:06;6.43;;;4.18;;
25717;SDS011;13574;52.040;5.692;2023-03-01T17:07:32;8.07;;;4.88;;
25717;SDS011;13574;52.040;5.692;2023-03-01T17:10:03;8.20;;;4.35;;
25717;SDS011;13574;52.040;5.692;2023-03-01T17:12:30;10.77;;;6.35;;
25717;SDS011;13574;52.040;5.692;2023-03-01T17:14:57;8.18;;;4.80;;
25717;SDS011;13574;52.040;5.692;2023-03-01T17:17:23;6.05;;;4.22;;
25717;SDS011;13574;52.040;5.692;2023-03-01T17:19:49;7.30;;;4.55;;